createdAt,value
2023-03-15T00:00:23.915Z,0.00
2023-03-15T00:01:23.882Z,0.00
2023-03-15T00:02:23.932Z,0.00
2023-03-15T00:03:23.239Z,0.00
2023-03-15T00:04:23.182Z,0.00
2023-03-15T00:05:23.861Z,0.00
2023-03-15T00:06:23.823Z,0.00
2023-03-15T00:07:25.118Z,0.00
2023-03-15T00:08:23.821Z,0.00
2023-03-15T00:09:24.082Z,0.00
2023-03-15T00:10:25.042Z,0.00
2023-03-15T00:11:24.070Z,0.00
2023-03-15T00:12:23.786Z,0.00
2023-03-15T00:13:23.085Z,0.00
2023-03-15T00:14:23.764Z,0.00
2023-03-15T00:15:23.060Z,0.00
2023-03-15T00:16:23.061Z,0.00
2023-03-15T00:17:23.723Z,0.00
2023-03-15T00:18:23.715Z,0.00
2023-03-15T00:19:23.706Z,0.00
2023-03-15T00:20:23.030Z,0.00
2023-03-15T00:21:23.685Z,0.00
2023-03-15T00:22:22.991Z,0.00
2023-03-15T00:23:23.675Z,0.00
2023-03-15T00:24:25.184Z,0.00
2023-03-15T00:25:23.643Z,0.00
2023-03-15T00:26:23.614Z,0.00
2023-03-15T00:27:23.625Z,0.00
2023-03-15T00:28:22.933Z,0.00
2023-03-15T00:29:23.594Z,0.00
2023-03-15T00:30:23.585Z,0.00
2023-03-15T00:31:23.644Z,0.00
2023-03-15T00:32:23.608Z,0.00
2023-03-15T00:33:22.866Z,0.00
2023-03-15T00:34:23.556Z,0.00
2023-03-15T00:35:23.557Z,0.00
2023-03-15T00:36:22.885Z,0.00
2023-03-15T00:37:23.518Z,0.00
2023-03-15T00:38:23.507Z,0.00
2023-03-15T00:39:24.756Z,0.00
2023-03-15T00:40:23.491Z,0.00
2023-03-15T00:41:23.465Z,0.00
2023-03-15T00:42:23.466Z,0.00
2023-03-15T00:43:22.773Z,0.00
2023-03-15T00:44:22.747Z,0.00
2023-03-15T00:45:22.736Z,0.00
2023-03-15T00:46:23.468Z,0.00
2023-03-15T00:47:23.421Z,0.00
2023-03-15T00:48:23.400Z,0.00
2023-03-15T00:49:23.389Z,0.00
2023-03-15T00:50:23.522Z,0.00
2023-03-15T00:51:23.664Z,0.00
2023-03-15T00:52:23.522Z,0.00
2023-03-15T00:53:23.348Z,0.00
2023-03-15T00:54:23.340Z,0.00
2023-03-15T00:55:22.649Z,0.00
2023-03-15T00:56:23.309Z,0.00
2023-03-15T00:57:22.631Z,0.00
2023-03-15T00:58:24.265Z,0.00
2023-03-15T00:59:23.283Z,0.00
2023-03-15T01:00:23.319Z,0.00
2023-03-15T01:01:22.615Z,0.00
2023-03-15T01:02:23.253Z,0.00
2023-03-15T01:03:23.250Z,0.00
2023-03-15T01:04:22.567Z,0.00
2023-03-15T01:05:23.416Z,0.00
2023-03-15T01:06:24.488Z,0.00
2023-03-15T01:07:23.203Z,0.00
2023-03-15T01:08:22.520Z,0.00
2023-03-15T01:09:22.520Z,0.00
2023-03-15T01:10:23.440Z,0.00
2023-03-15T01:11:22.523Z,0.00
2023-03-15T01:12:23.402Z,0.00
2023-03-15T01:13:23.380Z,0.00
2023-03-15T01:14:23.366Z,0.00
2023-03-15T01:15:23.114Z,0.00
2023-03-15T01:16:23.136Z,0.00
2023-03-15T01:17:23.092Z,0.00
2023-03-15T01:18:23.091Z,0.00
2023-03-15T01:19:23.073Z,0.00
2023-03-15T01:20:23.074Z,0.00
2023-03-15T01:21:23.031Z,0.00
2023-03-15T01:22:23.050Z,0.00
2023-03-15T01:23:23.312Z,0.00
2023-03-15T01:24:23.261Z,0.00
2023-03-15T01:25:23.004Z,0.00
2023-03-15T01:26:23.298Z,0.00
2023-03-15T01:27:23.229Z,0.00
2023-03-15T01:28:22.972Z,0.00
2023-03-15T01:29:23.232Z,0.00
2023-03-15T01:30:23.208Z,0.00
2023-03-15T01:31:23.358Z,0.00
2023-03-15T01:32:23.031Z,0.00
2023-03-15T01:33:22.929Z,0.00
2023-03-15T01:34:22.937Z,0.00
2023-03-15T01:35:23.158Z,0.00
2023-03-15T01:36:23.185Z,0.00
2023-03-15T01:37:23.139Z,0.00
2023-03-15T01:38:22.873Z,0.00
2023-03-15T01:39:22.865Z,0.00
2023-03-15T01:40:23.122Z,0.00
2023-03-15T01:41:23.106Z,0.00
2023-03-15T01:42:22.826Z,0.00
2023-03-15T01:43:23.085Z,0.00
2023-03-15T01:44:22.125Z,0.00
2023-03-15T01:45:23.054Z,0.00
2023-03-15T01:46:22.817Z,0.00
2023-03-15T01:47:22.774Z,0.00
2023-03-15T01:48:22.763Z,0.00
2023-03-15T01:49:22.782Z,0.00
2023-03-15T01:50:22.736Z,0.00
2023-03-15T01:51:22.718Z,0.00
2023-03-15T01:52:22.976Z,0.00
2023-03-15T01:53:22.967Z,0.00
2023-03-15T01:54:22.974Z,0.00
2023-03-15T01:55:22.688Z,0.00
2023-03-15T01:56:22.994Z,0.00
2023-03-15T01:57:22.670Z,0.00
2023-03-15T01:58:22.668Z,0.00
2023-03-15T01:59:22.896Z,0.00
2023-03-15T02:00:22.874Z,0.00
2023-03-15T02:01:22.611Z,0.00
2023-03-15T02:02:22.740Z,0.00
2023-03-15T02:03:23.856Z,0.00
2023-03-15T02:04:22.586Z,0.00
2023-03-15T02:05:22.821Z,0.00
2023-03-15T02:06:22.549Z,0.00
2023-03-15T02:07:22.818Z,0.00
2023-03-15T02:08:22.565Z,0.00
2023-03-15T02:09:22.811Z,0.00
2023-03-15T02:10:22.521Z,0.00
2023-03-15T02:11:22.498Z,0.00
2023-03-15T02:12:22.752Z,0.00
2023-03-15T02:13:22.787Z,0.00
2023-03-15T02:14:22.502Z,0.00
2023-03-15T02:15:22.729Z,0.00
2023-03-15T02:16:22.489Z,0.00
2023-03-15T02:17:22.695Z,0.00
2023-03-15T02:18:22.444Z,0.00
2023-03-15T02:19:22.435Z,0.00
2023-03-15T02:20:21.751Z,0.00
2023-03-15T02:21:22.673Z,0.00
2023-03-15T02:22:22.636Z,0.00
2023-03-15T02:23:22.640Z,0.00
2023-03-15T02:24:22.386Z,0.00
2023-03-15T02:25:22.654Z,0.00
2023-03-15T02:26:22.641Z,0.00
2023-03-15T02:27:22.651Z,0.00
2023-03-15T02:28:22.598Z,0.00
2023-03-15T02:29:22.600Z,0.00
2023-03-15T02:30:22.593Z,0.00
2023-03-15T02:31:22.662Z,0.00
2023-03-15T02:32:22.376Z,0.00
2023-03-15T02:33:22.285Z,0.00
2023-03-15T02:34:22.534Z,0.00
2023-03-15T02:35:22.529Z,0.00
2023-03-15T02:36:22.236Z,0.00
2023-03-15T02:37:22.241Z,0.00
2023-03-15T02:38:22.481Z,0.00
2023-03-15T02:39:22.218Z,0.00
2023-03-15T02:40:22.489Z,0.00
2023-03-15T02:41:22.475Z,0.00
2023-03-15T02:42:22.186Z,0.00
2023-03-15T02:43:22.454Z,0.00
2023-03-15T02:44:22.163Z,0.00
2023-03-15T02:45:22.446Z,0.00
2023-03-15T02:46:23.484Z,0.00
2023-03-15T02:47:22.377Z,0.00
2023-03-15T02:48:21.447Z,0.00
2023-03-15T02:49:22.110Z,0.00
2023-03-15T02:50:22.109Z,0.00
2023-03-15T02:51:22.358Z,0.00
2023-03-15T02:52:22.127Z,0.00
2023-03-15T02:53:21.395Z,0.00
2023-03-15T02:54:21.382Z,0.00
2023-03-15T02:55:22.049Z,0.00
2023-03-15T02:56:21.389Z,0.00
2023-03-15T02:57:22.310Z,0.00
2023-03-15T02:58:22.010Z,0.00
2023-03-15T02:59:22.014Z,0.00
2023-03-15T03:00:21.997Z,0.00
2023-03-15T03:01:22.290Z,0.00
2023-03-15T03:02:22.001Z,0.00
2023-03-15T03:03:21.975Z,0.00
2023-03-15T03:04:22.231Z,0.00
2023-03-15T03:05:21.960Z,0.00
2023-03-15T03:06:21.924Z,0.00
2023-03-15T03:07:21.271Z,0.00
2023-03-15T03:08:21.911Z,0.00
2023-03-15T03:09:21.264Z,0.00
2023-03-15T03:10:21.893Z,0.00
2023-03-15T03:11:21.855Z,0.00
2023-03-15T03:12:21.216Z,0.00
2023-03-15T03:13:21.853Z,0.00
2023-03-15T03:14:21.846Z,0.00
2023-03-15T03:15:21.841Z,0.00
2023-03-15T03:16:21.847Z,0.00
2023-03-15T03:17:21.809Z,0.00
2023-03-15T03:18:21.134Z,0.00
2023-03-15T03:19:21.798Z,0.00
2023-03-15T03:20:21.784Z,0.00
2023-03-15T03:21:21.742Z,0.00
2023-03-15T03:22:21.751Z,0.00
2023-03-15T03:23:21.142Z,0.00
2023-03-15T03:24:21.050Z,0.00
2023-03-15T03:25:21.741Z,0.00
2023-03-15T03:26:21.690Z,0.00
2023-03-15T03:27:21.712Z,0.00
2023-03-15T03:28:21.709Z,0.00
2023-03-15T03:29:21.689Z,0.00
2023-03-15T03:30:20.999Z,0.00
2023-03-15T03:31:21.693Z,0.00
2023-03-15T03:32:21.673Z,0.00
2023-03-15T03:33:21.638Z,0.00
2023-03-15T03:34:20.954Z,0.00
2023-03-15T03:35:20.948Z,0.00
2023-03-15T03:36:21.600Z,0.00
2023-03-15T03:37:20.954Z,0.00
2023-03-15T03:38:21.579Z,0.00
2023-03-15T03:39:21.833Z,0.00
2023-03-15T03:40:21.559Z,0.00
2023-03-15T03:41:20.889Z,0.00
2023-03-15T03:42:21.520Z,0.00
2023-03-15T03:43:21.523Z,0.00
2023-03-15T03:44:20.832Z,0.00
2023-03-15T03:45:21.508Z,0.00
2023-03-15T03:46:21.516Z,0.00
2023-03-15T03:47:20.813Z,0.00
2023-03-15T03:48:21.469Z,0.00
2023-03-15T03:49:21.473Z,0.00
2023-03-15T03:50:21.459Z,0.00
2023-03-15T03:51:20.749Z,0.00
2023-03-15T03:52:21.410Z,0.00
2023-03-15T03:53:20.876Z,0.00
2023-03-15T03:54:21.425Z,0.00
2023-03-15T03:55:21.396Z,0.00
2023-03-15T03:56:21.394Z,0.00
2023-03-15T03:57:21.367Z,0.00
2023-03-15T03:58:21.373Z,0.00
2023-03-15T03:59:20.703Z,0.00
2023-03-15T04:00:21.363Z,0.00
2023-03-15T04:01:20.653Z,0.00
2023-03-15T04:02:21.401Z,0.00
2023-03-15T04:03:21.313Z,0.00
2023-03-15T04:04:21.344Z,0.00
2023-03-15T04:05:20.624Z,0.00
2023-03-15T04:06:20.624Z,0.00
2023-03-15T04:07:20.631Z,0.00
2023-03-15T04:08:20.583Z,0.00
2023-03-15T04:09:20.632Z,0.00
2023-03-15T04:10:21.242Z,0.00
2023-03-15T04:11:20.572Z,0.00
2023-03-15T04:12:21.246Z,0.00
2023-03-15T04:13:21.204Z,0.00
2023-03-15T04:14:21.198Z,0.00
2023-03-15T04:15:21.183Z,0.00
2023-03-15T04:16:20.608Z,0.00
2023-03-15T04:17:20.560Z,0.00
2023-03-15T04:18:21.027Z,0.00
2023-03-15T04:19:20.534Z,0.00
2023-03-15T04:20:21.166Z,0.00
2023-03-15T04:21:21.144Z,0.00
2023-03-15T04:22:20.903Z,0.00
2023-03-15T04:23:21.104Z,0.00
2023-03-15T04:24:20.524Z,0.00
2023-03-15T04:25:21.091Z,0.00
2023-03-15T04:26:21.074Z,0.00
2023-03-15T04:27:21.034Z,0.00
2023-03-15T04:28:21.056Z,0.00
2023-03-15T04:29:21.045Z,0.00
2023-03-15T04:30:21.040Z,0.00
2023-03-15T04:31:21.055Z,0.00
2023-03-15T04:32:21.047Z,0.00
2023-03-15T04:33:21.001Z,0.00
2023-03-15T04:34:20.311Z,0.00
2023-03-15T04:35:20.980Z,0.00
2023-03-15T04:36:20.983Z,0.00
2023-03-15T04:37:20.297Z,0.00
2023-03-15T04:38:20.361Z,0.00
2023-03-15T04:39:20.253Z,0.00
2023-03-15T04:40:20.257Z,0.00
2023-03-15T04:41:20.919Z,0.00
2023-03-15T04:42:20.885Z,0.00
2023-03-15T04:43:20.895Z,0.00
2023-03-15T04:44:20.885Z,0.00
2023-03-15T04:45:20.208Z,0.00
2023-03-15T04:46:20.224Z,0.00
2023-03-15T04:47:20.846Z,0.00
2023-03-15T04:48:20.167Z,0.00
2023-03-15T04:49:20.843Z,0.00
2023-03-15T04:50:20.829Z,0.00
2023-03-15T04:51:20.818Z,0.00
2023-03-15T04:52:20.150Z,0.00
2023-03-15T04:53:20.803Z,0.00
2023-03-15T04:54:20.105Z,0.00
2023-03-15T04:55:20.090Z,0.00
2023-03-15T04:56:20.325Z,0.00
2023-03-15T04:57:25.679Z,0.00
2023-03-15T04:58:24.653Z,0.00
2023-03-15T04:59:23.681Z,0.00
2023-03-15T05:00:20.723Z,0.00
2023-03-15T05:01:20.705Z,0.00
2023-03-15T05:02:20.745Z,0.00
2023-03-15T05:03:19.999Z,0.00
2023-03-15T05:04:20.678Z,0.00
2023-03-15T05:05:19.999Z,0.00
2023-03-15T05:06:20.657Z,0.00
2023-03-15T05:07:20.629Z,0.00
2023-03-15T05:08:20.632Z,0.00
2023-03-15T05:09:20.619Z,0.00
2023-03-15T05:10:20.608Z,0.00
2023-03-15T05:11:20.599Z,0.00
2023-03-15T05:12:20.582Z,0.00
2023-03-15T05:13:20.588Z,0.00
2023-03-15T05:14:20.560Z,0.00
2023-03-15T05:15:20.845Z,0.00
2023-03-15T05:16:20.554Z,0.00
2023-03-15T05:17:20.523Z,4.00
2023-03-15T05:18:20.534Z,4.00
2023-03-15T05:19:19.877Z,0.00
2023-03-15T05:20:19.813Z,0.00
2023-03-15T05:21:19.826Z,4.00
2023-03-15T05:22:19.841Z,4.00
2023-03-15T05:23:19.781Z,4.00
2023-03-15T05:24:20.451Z,4.00
2023-03-15T05:25:20.465Z,4.00
2023-03-15T05:26:19.760Z,8.00
2023-03-15T05:27:19.765Z,8.00
2023-03-15T05:28:19.766Z,8.00
2023-03-15T05:29:20.403Z,12.00
2023-03-15T05:30:20.393Z,12.00
2023-03-15T05:31:20.435Z,16.00
2023-03-15T05:32:19.714Z,16.00
2023-03-15T05:33:20.382Z,20.00
2023-03-15T05:34:20.372Z,24.00
2023-03-15T05:35:20.446Z,28.00
2023-03-15T05:36:20.343Z,36.00
2023-03-15T05:37:20.313Z,40.00
2023-03-15T05:38:20.313Z,52.00
2023-03-15T05:39:19.651Z,64.00
2023-03-15T05:40:19.612Z,72.00
2023-03-15T05:41:19.640Z,80.00
2023-03-15T05:42:20.244Z,76.00
2023-03-15T05:43:19.613Z,84.00
2023-03-15T05:44:19.553Z,100.00
2023-03-15T05:45:20.238Z,124.00
2023-03-15T05:46:20.239Z,124.00
2023-03-15T05:47:20.205Z,144.00
2023-03-15T05:48:20.212Z,172.00
2023-03-15T05:49:19.503Z,192.00
2023-03-15T05:50:19.498Z,188.00
2023-03-15T05:51:20.173Z,196.00
2023-03-15T05:52:20.145Z,204.00
2023-03-15T05:53:20.157Z,212.00
2023-03-15T05:54:19.469Z,232.00
2023-03-15T05:55:20.138Z,272.00
2023-03-15T05:56:20.113Z,292.00
2023-03-15T05:57:19.461Z,324.00
2023-03-15T05:58:20.101Z,364.00
2023-03-15T05:59:20.086Z,332.00
2023-03-15T06:00:20.102Z,356.00
2023-03-15T06:01:19.392Z,316.00
2023-03-15T06:02:19.400Z,340.00
2023-03-15T06:03:19.388Z,380.00
2023-03-15T06:04:19.423Z,432.00
2023-03-15T06:05:20.032Z,496.00
2023-03-15T06:06:20.003Z,532.00
2023-03-15T06:07:19.338Z,620.00
2023-03-15T06:08:19.996Z,660.00
2023-03-15T06:09:19.982Z,760.00
2023-03-15T06:10:19.963Z,796.00
2023-03-15T06:11:19.273Z,784.00
2023-03-15T06:12:19.927Z,828.00
2023-03-15T06:13:19.289Z,936.00
2023-03-15T06:14:19.264Z,988.00
2023-03-15T06:15:20.011Z,1032.00
2023-03-15T06:16:19.985Z,1068.00
2023-03-15T06:17:19.877Z,1152.00
2023-03-15T06:18:19.213Z,1172.00
2023-03-15T06:19:19.195Z,1212.00
2023-03-15T06:20:19.206Z,1260.00
2023-03-15T06:21:19.862Z,1308.00
2023-03-15T06:22:19.814Z,1364.00
2023-03-15T06:23:19.823Z,1420.00
2023-03-15T06:24:19.124Z,1492.00
2023-03-15T06:25:19.131Z,1576.00
2023-03-15T06:26:19.137Z,1620.00
2023-03-15T06:27:19.770Z,1660.00
2023-03-15T06:28:19.774Z,1820.00
2023-03-15T06:29:19.763Z,1856.00
2023-03-15T06:30:19.115Z,1980.00
2023-03-15T06:31:19.168Z,2072.00
2023-03-15T06:32:19.080Z,2048.00
2023-03-15T06:33:19.714Z,2064.00
2023-03-15T06:34:19.704Z,2100.00
2023-03-15T06:35:19.700Z,2208.00
2023-03-15T06:36:19.005Z,2196.00
2023-03-15T06:37:29.148Z,2252.00
2023-03-15T06:38:21.907Z,2440.00
2023-03-15T06:39:19.688Z,2592.00
2023-03-15T06:40:19.649Z,2708.00
2023-03-15T06:41:18.941Z,2748.00
2023-03-15T06:42:18.946Z,2896.00
2023-03-15T06:43:18.946Z,3140.00
2023-03-15T06:44:19.598Z,3388.00
2023-03-15T06:45:19.594Z,3676.00
2023-03-15T06:46:19.590Z,4284.00
2023-03-15T06:47:18.917Z,5136.00
2023-03-15T06:48:18.870Z,6196.00
2023-03-15T06:49:18.873Z,6660.00
2023-03-15T06:50:19.557Z,6712.00
2023-03-15T06:51:19.543Z,7328.00
2023-03-15T06:52:19.518Z,7336.00
2023-03-15T06:53:18.810Z,6864.00
2023-03-15T06:54:19.502Z,7476.00
2023-03-15T06:55:19.488Z,7960.00
2023-03-15T06:56:18.818Z,7740.00
2023-03-15T06:57:19.466Z,7752.00
2023-03-15T06:58:19.461Z,7812.00
2023-03-15T06:59:18.758Z,7536.00
2023-03-15T07:00:19.434Z,7112.00
2023-03-15T07:01:18.840Z,7120.00
2023-03-15T07:02:19.449Z,7572.00
2023-03-15T07:03:19.422Z,7472.00
2023-03-15T07:04:19.446Z,7504.00
2023-03-15T07:05:19.399Z,7432.00
2023-03-15T07:06:18.697Z,7380.00
2023-03-15T07:07:19.344Z,7784.00
2023-03-15T07:08:19.347Z,7772.00
2023-03-15T07:09:19.336Z,7464.00
2023-03-15T07:10:19.337Z,7332.00
2023-03-15T07:11:18.636Z,7616.00
2023-03-15T07:12:18.624Z,7924.00
2023-03-15T07:13:18.644Z,7576.00
2023-03-15T07:14:19.295Z,7872.00
2023-03-15T07:15:19.278Z,7908.00
2023-03-15T07:16:19.360Z,7748.00
2023-03-15T07:17:19.237Z,7800.00
2023-03-15T07:18:18.547Z,8096.00
2023-03-15T07:19:19.249Z,8124.00
2023-03-15T07:20:19.229Z,7920.00
2023-03-15T07:21:19.209Z,7712.00
2023-03-15T07:22:19.179Z,7652.00
2023-03-15T07:23:18.500Z,7596.00
2023-03-15T07:24:18.521Z,8100.00
2023-03-15T07:25:19.170Z,8120.00
2023-03-15T07:26:19.162Z,7972.00
2023-03-15T07:27:19.608Z,8172.00
2023-03-15T07:28:18.441Z,8316.00
2023-03-15T07:29:19.124Z,8100.00
2023-03-15T07:30:19.117Z,8152.00
2023-03-15T07:31:19.119Z,8712.00
2023-03-15T07:32:19.120Z,9152.00
2023-03-15T07:33:19.201Z,9104.00
2023-03-15T07:34:18.374Z,8608.00
2023-03-15T07:35:19.095Z,8484.00
2023-03-15T07:36:18.375Z,8700.00
2023-03-15T07:37:19.031Z,8560.00
2023-03-15T07:38:18.379Z,8768.00
2023-03-15T07:39:19.051Z,9584.00
2023-03-15T07:40:18.345Z,10248.00
2023-03-15T07:41:18.999Z,9864.00
2023-03-15T07:42:18.313Z,9324.00
2023-03-15T07:43:18.972Z,9532.00
2023-03-15T07:44:18.965Z,10172.00
2023-03-15T07:45:18.239Z,10632.00
2023-03-15T07:46:18.433Z,10792.00
2023-03-15T07:47:18.269Z,10964.00
2023-03-15T07:48:18.911Z,12160.00
2023-03-15T07:49:18.911Z,13684.00
2023-03-15T07:50:18.909Z,14272.00
2023-03-15T07:51:18.185Z,14368.00
2023-03-15T07:52:18.853Z,14560.00
2023-03-15T07:53:18.859Z,14944.00
2023-03-15T07:54:18.863Z,16256.00
2023-03-15T07:55:18.876Z,17280.00
2023-03-15T07:56:19.788Z,18048.00
2023-03-15T07:57:18.805Z,16160.00
2023-03-15T07:58:20.289Z,13536.00
2023-03-15T07:59:18.801Z,11916.00
2023-03-15T08:00:18.802Z,12132.00
2023-03-15T08:01:18.785Z,12108.00
2023-03-15T08:02:18.773Z,8004.00
2023-03-15T08:03:18.102Z,11084.00
2023-03-15T08:04:18.061Z,10472.00
2023-03-15T08:05:18.740Z,11564.00
2023-03-15T08:06:18.726Z,14132.00
2023-03-15T08:07:18.062Z,15616.00
2023-03-15T08:08:18.697Z,15808.00
2023-03-15T08:09:18.686Z,16896.00
2023-03-15T08:10:18.707Z,17632.00
2023-03-15T08:11:18.671Z,17248.00
2023-03-15T08:12:18.646Z,17056.00
2023-03-15T08:13:18.665Z,17920.00
2023-03-15T08:14:18.636Z,18624.00
2023-03-15T08:15:17.930Z,16544.00
2023-03-15T08:16:18.662Z,18400.00
2023-03-15T08:17:18.580Z,19360.00
2023-03-15T08:18:18.589Z,21504.00
2023-03-15T08:19:17.888Z,20928.00
2023-03-15T08:20:18.568Z,7016.00
2023-03-15T08:21:18.562Z,21472.00
2023-03-15T08:22:18.544Z,21888.00
2023-03-15T08:23:17.875Z,22432.00
2023-03-15T08:24:18.543Z,21856.00
2023-03-15T08:25:18.520Z,24224.00
2023-03-15T08:26:18.513Z,25440.00
2023-03-15T08:27:18.482Z,24928.00
2023-03-15T08:28:18.492Z,23264.00
2023-03-15T08:29:17.830Z,23456.00
2023-03-15T08:30:18.481Z,24864.00
2023-03-15T08:31:18.490Z,25312.00
2023-03-15T08:32:18.534Z,24096.00
2023-03-15T08:33:18.413Z,23296.00
2023-03-15T08:34:17.746Z,25888.00
2023-03-15T08:35:18.418Z,25632.00
2023-03-15T08:36:18.448Z,24736.00
2023-03-15T08:37:18.394Z,25856.00
2023-03-15T08:38:18.355Z,26240.00
2023-03-15T08:39:18.365Z,27072.00
2023-03-15T08:40:18.356Z,28192.00
2023-03-15T08:41:18.369Z,28576.00
2023-03-15T08:42:17.647Z,29376.00
2023-03-15T08:43:17.710Z,29728.00
2023-03-15T08:44:18.312Z,30144.00
2023-03-15T08:45:18.312Z,27872.00
2023-03-15T08:46:18.346Z,27328.00
2023-03-15T08:47:18.280Z,29920.00
2023-03-15T08:48:18.247Z,31200.00
2023-03-15T08:49:18.256Z,30272.00
2023-03-15T08:50:18.256Z,20256.00
2023-03-15T08:51:18.227Z,31168.00
2023-03-15T08:52:18.257Z,29632.00
2023-03-15T08:53:18.193Z,28640.00
2023-03-15T08:54:18.196Z,27680.00
2023-03-15T08:55:18.207Z,29792.00
2023-03-15T08:56:17.500Z,31456.00
2023-03-15T08:57:18.168Z,31456.00
2023-03-15T08:58:18.138Z,31456.00
2023-03-15T08:59:25.546Z,33632.00
2023-03-15T09:00:19.877Z,33664.00
2023-03-15T09:01:17.438Z,32320.00
2023-03-15T09:02:17.532Z,26304.00
2023-03-15T09:03:18.079Z,33664.00
2023-03-15T09:04:18.170Z,35680.00
2023-03-15T09:05:18.088Z,7852.00
2023-03-15T09:06:18.079Z,25984.00
2023-03-15T09:07:18.059Z,33408.00
2023-03-15T09:08:18.029Z,4596.00
2023-03-15T09:09:18.031Z,12416.00
2023-03-15T09:10:17.353Z,7352.00
2023-03-15T09:11:18.022Z,26080.00
2023-03-15T09:12:17.328Z,35744.00
2023-03-15T09:13:17.971Z,33856.00
2023-03-15T09:14:17.312Z,20992.00
2023-03-15T09:15:17.960Z,23680.00
2023-03-15T09:16:17.984Z,33504.00
2023-03-15T09:17:17.945Z,32032.00
2023-03-15T09:18:18.722Z,33088.00
2023-03-15T09:19:17.242Z,24192.00
2023-03-15T09:20:17.913Z,31840.00
2023-03-15T09:21:17.228Z,33888.00
2023-03-15T09:22:29.208Z,37440.00
2023-03-15T09:23:19.661Z,36992.00
2023-03-15T09:24:18.114Z,24000.00
2023-03-15T09:25:17.176Z,6964.00
2023-03-15T09:26:17.858Z,7804.00
2023-03-15T09:27:17.859Z,6504.00
2023-03-15T09:28:17.812Z,6216.00
2023-03-15T09:29:17.835Z,5844.00
2023-03-15T09:30:17.183Z,4440.00
2023-03-15T09:31:17.862Z,6264.00
2023-03-15T09:32:17.122Z,5456.00
2023-03-15T09:33:17.775Z,5588.00
2023-03-15T09:34:17.772Z,5272.00
2023-03-15T09:35:17.754Z,4932.00
2023-03-15T09:36:17.749Z,4716.00
2023-03-15T09:37:17.735Z,4248.00
2023-03-15T09:38:17.074Z,4944.00
2023-03-15T09:39:17.716Z,3544.00
2023-03-15T09:40:17.705Z,3912.00
2023-03-15T09:41:17.698Z,4928.00
2023-03-15T09:42:17.700Z,4500.00
2023-03-15T09:43:17.650Z,4360.00
2023-03-15T09:44:17.000Z,4148.00
2023-03-15T09:45:16.947Z,4052.00
2023-03-15T09:46:17.681Z,4464.00
2023-03-15T09:47:17.628Z,4068.00
2023-03-15T09:48:17.641Z,3916.00
2023-03-15T09:49:16.941Z,4140.00
2023-03-15T09:50:17.607Z,4000.00
2023-03-15T09:51:17.584Z,3236.00
2023-03-15T09:52:16.905Z,4344.00
2023-03-15T09:53:16.909Z,4308.00
2023-03-15T09:54:19.182Z,4368.00
2023-03-15T09:55:17.543Z,4324.00
2023-03-15T09:56:17.533Z,4372.00
2023-03-15T09:57:17.523Z,4584.00
2023-03-15T09:58:17.500Z,3440.00
2023-03-15T09:59:17.502Z,3576.00
2023-03-15T10:00:17.484Z,4516.00
2023-03-15T10:01:17.524Z,4432.00
2023-03-15T10:02:17.464Z,4328.00
2023-03-15T10:03:17.533Z,4112.00
2023-03-15T10:04:16.773Z,3956.00
2023-03-15T10:05:17.434Z,3900.00
2023-03-15T10:06:16.748Z,3852.00
2023-03-15T10:07:17.418Z,4096.00
2023-03-15T10:08:17.395Z,3888.00
2023-03-15T10:09:17.424Z,3828.00
2023-03-15T10:10:17.434Z,3924.00
2023-03-15T10:11:17.377Z,4192.00
2023-03-15T10:12:17.362Z,4032.00
2023-03-15T10:13:16.708Z,3712.00
2023-03-15T10:14:17.349Z,4108.00
2023-03-15T10:15:17.328Z,3924.00
2023-03-15T10:16:17.391Z,3968.00
2023-03-15T10:17:17.310Z,4116.00
2023-03-15T10:18:17.287Z,4252.00
2023-03-15T10:19:16.641Z,3968.00
2023-03-15T10:20:17.540Z,3816.00
2023-03-15T10:21:17.512Z,3560.00
2023-03-15T10:22:17.514Z,3424.00
2023-03-15T10:23:17.580Z,3580.00
2023-03-15T10:24:17.235Z,4016.00
2023-03-15T10:25:17.498Z,5268.00
2023-03-15T10:26:17.213Z,4552.00
2023-03-15T10:27:17.493Z,3912.00
2023-03-15T10:28:17.487Z,4344.00
2023-03-15T10:29:17.472Z,4224.00
2023-03-15T10:30:17.171Z,3892.00
2023-03-15T10:31:22.217Z,3732.00
2023-03-15T10:32:17.455Z,3924.00
2023-03-15T10:33:17.111Z,4040.00
2023-03-15T10:34:17.139Z,3244.00
2023-03-15T10:35:17.108Z,3180.00
2023-03-15T10:36:17.164Z,3232.00
2023-03-15T10:37:17.371Z,3420.00
2023-03-15T10:38:17.064Z,4060.00
2023-03-15T10:39:17.351Z,4212.00
2023-03-15T10:40:17.081Z,4916.00
2023-03-15T10:41:23.450Z,5128.00
2023-03-15T10:42:18.821Z,4952.00
2023-03-15T10:43:17.000Z,4436.00
2023-03-15T10:44:17.273Z,4372.00
2023-03-15T10:45:17.295Z,4484.00
2023-03-15T10:46:17.282Z,4156.00
2023-03-15T10:47:23.528Z,3764.00
2023-03-15T10:48:18.331Z,3056.00
2023-03-15T10:49:17.243Z,3020.00
2023-03-15T10:50:17.213Z,3156.00
2023-03-15T10:51:17.202Z,3420.00
2023-03-15T10:52:17.221Z,3680.00
2023-03-15T10:53:17.220Z,4136.00
2023-03-15T10:54:17.162Z,4064.00
2023-03-15T10:55:16.905Z,4072.00
2023-03-15T10:56:17.172Z,3608.00
2023-03-15T10:57:16.863Z,3324.00
2023-03-15T10:58:17.139Z,3116.00
2023-03-15T10:59:17.127Z,3656.00
2023-03-15T11:00:16.832Z,3648.00
2023-03-15T11:01:16.184Z,3612.00
2023-03-15T11:02:16.830Z,3520.00
2023-03-15T11:03:16.851Z,3512.00
2023-03-15T11:04:17.072Z,3276.00
2023-03-15T11:05:17.099Z,3556.00
2023-03-15T11:06:17.047Z,3472.00
2023-03-15T11:07:17.031Z,3428.00
2023-03-15T11:08:17.009Z,3328.00
2023-03-15T11:09:17.030Z,3268.00
2023-03-15T11:10:16.725Z,3300.00
2023-03-15T11:11:17.014Z,3544.00
2023-03-15T11:12:18.278Z,3576.00
2023-03-15T11:13:16.706Z,3536.00
2023-03-15T11:14:16.985Z,3584.00
2023-03-15T11:15:16.989Z,3416.00
2023-03-15T11:16:16.953Z,3544.00
2023-03-15T11:17:16.974Z,3500.00
2023-03-15T11:18:16.888Z,3712.00
2023-03-15T11:19:16.646Z,3516.00
2023-03-15T11:20:16.644Z,3508.00
2023-03-15T11:21:16.600Z,3432.00
2023-03-15T11:22:16.900Z,3296.00
2023-03-15T11:23:17.829Z,3208.00
2023-03-15T11:24:16.585Z,3244.00
2023-03-15T11:25:16.841Z,4008.00
2023-03-15T11:26:29.468Z,3724.00
2023-03-15T11:27:17.539Z,3164.00
2023-03-15T11:28:17.831Z,3656.00
2023-03-15T11:29:16.812Z,3924.00
2023-03-15T11:30:16.520Z,3956.00
2023-03-15T11:31:16.555Z,3744.00
2023-03-15T11:32:16.480Z,3628.00
2023-03-15T11:33:17.730Z,3452.00
2023-03-15T11:34:16.471Z,3224.00
2023-03-15T11:35:16.451Z,3092.00
2023-03-15T11:36:16.442Z,3176.00
2023-03-15T11:37:16.424Z,3184.00
2023-03-15T11:38:16.064Z,3248.00
2023-03-15T11:39:16.396Z,3400.00
2023-03-15T11:40:17.266Z,3376.00
2023-03-15T11:41:15.746Z,3300.00
2023-03-15T11:42:16.385Z,3640.00
2023-03-15T11:43:15.726Z,3848.00
2023-03-15T11:44:16.339Z,3996.00
2023-03-15T11:45:15.690Z,3908.00
2023-03-15T11:46:16.337Z,3296.00
2023-03-15T11:47:16.335Z,3248.00
2023-03-15T11:48:16.315Z,3568.00
2023-03-15T11:49:16.279Z,3464.00
2023-03-15T11:50:15.615Z,3348.00
2023-03-15T11:51:16.367Z,3220.00
2023-03-15T11:52:16.269Z,3080.00
2023-03-15T11:53:16.272Z,2928.00
2023-03-15T11:54:16.242Z,2988.00
2023-03-15T11:55:16.240Z,3024.00
2023-03-15T11:56:16.219Z,3248.00
2023-03-15T11:57:15.559Z,3492.00
2023-03-15T11:58:16.200Z,3440.00
2023-03-15T11:59:16.178Z,3140.00
2023-03-15T12:00:16.301Z,3236.00
2023-03-15T12:01:15.488Z,3480.00
2023-03-15T12:02:16.189Z,3588.00
2023-03-15T12:03:16.165Z,3228.00
2023-03-15T12:04:16.124Z,3276.00
2023-03-15T12:05:18.360Z,3256.00
2023-03-15T12:06:16.119Z,3472.00
2023-03-15T12:07:16.111Z,3404.00
2023-03-15T12:08:16.093Z,3296.00
2023-03-15T12:09:16.064Z,2940.00
2023-03-15T12:10:16.071Z,2760.00
2023-03-15T12:11:16.062Z,2820.00
2023-03-15T12:12:16.057Z,2684.00
2023-03-15T12:13:16.032Z,2316.00
2023-03-15T12:14:16.030Z,2584.00
2023-03-15T12:15:16.119Z,2476.00
2023-03-15T12:16:16.055Z,2316.00
2023-03-15T12:17:15.344Z,2612.00
2023-03-15T12:18:15.985Z,2816.00
2023-03-15T12:19:15.959Z,2992.00
2023-03-15T12:20:15.397Z,3060.00
2023-03-15T12:21:15.954Z,3116.00
2023-03-15T12:22:15.948Z,2996.00
2023-03-15T12:23:15.935Z,2944.00
2023-03-15T12:24:15.910Z,3456.00
2023-03-15T12:25:15.216Z,3716.00
2023-03-15T12:26:15.245Z,3756.00
2023-03-15T12:27:15.933Z,3120.00
2023-03-15T12:28:15.876Z,2792.00
2023-03-15T12:29:15.846Z,2812.00
2023-03-15T12:30:15.857Z,2656.00
2023-03-15T12:31:15.242Z,2516.00
2023-03-15T12:32:15.159Z,2432.00
2023-03-15T12:33:17.089Z,2380.00
2023-03-15T12:34:17.344Z,2404.00